Data for 02/25/2013

Time Sea-Level Adjusted Pressure Absolute Pressure Temperature Relative Humidity Dew Point   
(mb) (inHg) (mb) (inHg) (C) (F) (%) (C) (F)
00:05 1018 30.06 848 25.04 -5.1 22.8 60 -11.8 10.8
00:10 1018 30.06 848 25.04 -4.8 23.3 58 -11.9 10.5
00:15 1018 30.06 848 25.04 -5 23 61 -11.5 11.3
00:20 1018 30.06 848 25.04 -5.6 21.9 62 -11.8 10.7
00:25 1018 30.06 848 25.04 -6.8 19.7 67 -11.9 10.6
00:30 1018 30.06 848 25.04 -6.5 20.3 64 -12.2 10
00:35 1018 30.06 848 25.04 -6.2 20.9 66 -11.5 11.3
00:40 1018 30.06 847 25.01 -6.7 20 67 -11.9 10.6
00:45 1018 30.06 847 25.01 -6.5 20.4 65 -11.9 10.5
00:50 1018 30.06 847 25.01 -6.3 20.6 66 -11.6 11.1
00:55 1018 30.06 847 25.01 -6.4 20.6 68 -11.3 11.7
01:00 1018 30.06 847 25.01 -6.3 20.7 67 -11.4 11.4
01:05 1018 30.06 847 25.01 -6 21.2 68 -11 12.1
01:10 1018 30.06 847 25.01 -6.1 21 66 -11.5 11.3
01:15 1018 30.06 847 25.01 -6.3 20.6 67 -11.5 11.4
01:20 1018 30.06 847 25.01 -6.5 20.3 67 -11.7 11
01:25 1018 30.06 847 25.01 -6.9 19.7 68 -11.8 10.8
01:30 1018 30.06 847 25.01 -7.1 19.3 69 -11.9 10.6
01:35 1018 30.06 847 25.01 -7.3 19 69 -12 10.5
01:40 1018 30.06 847 25.01 -7.2 19.1 69 -12 10.5
01:45 1018 30.06 847 25.01 -6.9 19.6 68 -11.8 10.8
01:50 1018 30.06 847 25.01 -6.9 19.6 68 -11.8 10.7
01:55 1018 30.06 847 25.01 -6.6 20 68 -11.7 11
02:00 1018 30.06 847 25.01 -6.5 20.3 66 -11.8 10.8
02:05 1018 30.06 847 25.01 -6.5 20.2 66 -11.8 10.7
02:10 1018 30.06 847 25.01 -6.7 19.9 66 -12.1 10.2
02:15 1018 30.06 847 25.01 -6.9 19.6 65 -12.3 9.8
02:20 1018 30.06 847 25.01 -7 19.4 66 -12.3 9.9
02:25 1018 30.06 847 25.01 -7.1 19.2 65 -12.6 9.3
02:30 1018 30.06 847 25.01 -6.6 20.1 64 -12.4 9.7
02:35 1018 30.06 847 25.01 -6.5 20.2 64 -12.3 9.8
02:40 1018 30.06 847 25.01 -6.5 20.2 64 -12.3 9.9
02:45 1018 30.06 847 25.01 -6.7 20 65 -12.3 9.9
02:50 1018 30.06 847 25.01 -6.4 20.5 63 -12.3 9.8
02:55 1018 30.06 847 25.01 -6.6 20.1 65 -12.2 10.1
03:00 1018 30.06 847 25.01 -6.8 19.9 66 -12.1 10.1
03:05 1018 30.06 847 25.01 -7.2 19 70 -11.9 10.6
03:10 1018 30.06 847 25.01 -7.6 18.4 70 -12.1 10.2
03:15 1018 30.06 847 25.01 -7.6 18.2 73 -11.6 11.1
03:20 1018 30.06 847 25.01 -7.5 18.6 71 -11.8 10.8
03:25 1018 30.06 847 25.01 -7.7 18.1 72 -11.9 10.6
03:30 1018 30.06 847 25.01 -8 17.6 73 -12 10.3
03:35 1018 30.06 847 25.01 -8.3 17.2 74 -12.2 10.1
03:40 1018 30.06 847 25.01 -8.2 17.2 73 -12.2 10
03:45 1017 30.03 847 25.01 -8.3 17.1 73 -12.3 9.9
03:50 1017 30.03 847 25.01 -8.4 16.9 73 -12.3 9.8
03:55 1017 30.03 847 25.01 -8.5 16.8 74 -12.3 9.9
04:00 1017 30.03 847 25.01 -8.5 16.8 74 -12.3 9.8
04:05 1017 30.03 847 25.01 -8 17.5 73 -12.1 10.2
04:10 1017 30.03 846 24.98 -7.3 18.8 70 -12 10.4
04:15 1017 30.03 846 24.98 -6.9 19.6 70 -11.5 11.2
04:20 1017 30.03 846 24.98 -6.9 19.5 69 -11.8 10.8
04:25 1017 30.03 846 24.98 -7.6 18.3 71 -12 10.4
04:30 1017 30.03 846 24.98 -8.1 17.4 70 -12.6 9.4
04:35 1017 30.03 846 24.98 -8.2 17.3 69 -12.8 8.9
04:40 1017 30.03 846 24.98 -8.4 16.9 71 -12.7 9.1
04:45 1017 30.03 846 24.98 -8.5 16.8 69 -13.1 8.4
04:50 1017 30.03 846 24.98 -8.4 16.9 69 -13.2 8.2
04:55 1017 30.03 846 24.98 -8.9 16.1 70 -13.4 7.9
05:00 1017 30.03 846 24.98 -9.1 15.7 71 -13.5 7.7
05:05 1017 30.03 846 24.98 -9 15.8 71 -13.4 7.9
05:10 1017 30.03 846 24.98 -8.8 16.3 71 -13.2 8.3
05:15 1017 30.03 846 24.98 -8.6 16.5 70 -13 8.5
05:20 1017 30.03 846 24.98 -8.7 16.4 71 -13.1 8.5
05:25 1017 30.03 846 24.98 -8.9 16.1 71 -13.1 8.4
05:30 1017 30.03 846 24.98 -9 15.7 71 -13.4 7.8
05:35 1017 30.03 846 24.98 -8.6 16.5 69 -13.3 8.1
05:40 1017 30.03 846 24.98 -8.3 17 70 -12.9 8.8
05:45 1017 30.03 846 24.98 -8 17.6 68 -12.9 8.7
05:50 1016 30 846 24.98 -7.9 17.8 68 -12.8 9
05:55 1016 30 846 24.98 -7.9 17.8 67 -13 8.6
06:00 1016 30 846 24.98 -8.2 17.3 69 -12.9 8.8
06:05 1016 30 846 24.98 -8 17.5 67 -13.1 8.5
06:10 1016 30 846 24.98 -7.5 18.4 65 -13 8.6
06:15 1016 30 846 24.98 -7.5 18.5 66 -12.8 8.9
06:20 1016 30 845 24.95 -7.8 18 66 -13.1 8.4
06:25 1016 30 845 24.95 -7.7 18.1 65 -13.2 8.3
06:30 1016 30 845 24.95 -7.6 18.3 65 -13.2 8.3
06:35 1016 30 845 24.95 -7.6 18.4 65 -13.1 8.4
06:40 1016 30 845 24.95 -7.8 17.9 67 -13 8.7
06:45 1016 30 845 24.95 -7.7 18.1 67 -12.9 8.7
06:50 1016 30 845 24.95 -7.3 18.8 67 -12.4 9.7
06:55 1016 30 845 24.95 -7.3 18.9 73 -11.3 11.7
07:00 1016 30 845 24.95 -7.8 17.9 73 -11.9 10.6
07:05 1016 30 845 24.95 -8.3 17 73 -12.3 9.9
07:10 1016 30 845 24.95 -8.3 17 74 -12.1 10.2
07:15 1016 30 845 24.95 -8.7 16.3 77 -12.1 10.2
07:20 1016 30 845 24.95 -8.4 16.8 74 -12.2 10.1
07:25 1016 30 845 24.95 -8.3 17 74 -12.1 10.2
07:30 1015 29.97 845 24.95 -7.5 18.6 71 -11.9 10.6
07:35 1015 29.97 845 24.95 -6.7 19.9 67 -11.9 10.5
07:40 1015 29.97 845 24.95 -6.3 20.7 63 -12.2 10
07:45 1015 29.97 844 24.92 -6.5 20.3 62 -12.7 9.2
07:50 1015 29.97 844 24.92 -6.7 20 62 -12.8 9
07:55 1015 29.97 844 24.92 -7.1 19.3 64 -12.8 9
08:00 1015 29.97 844 24.92 -7.4 18.7 65 -12.9 8.8
08:05 1015 29.97 844 24.92 -7.8 17.9 67 -13 8.6
08:10 1015 29.97 844 24.92 -8 17.5 67 -13.1 8.3
08:15 1015 29.97 844 24.92 -8.1 17.5 68 -13.1 8.5
08:20 1015 29.97 844 24.92 -8 17.5 68 -13 8.6
08:25 1015 29.97 844 24.92 -7.7 18.2 67 -12.8 9
08:30 1015 29.97 844 24.92 -7.2 19 65 -12.7 9.2
08:35 1015 29.97 844 24.92 -7.1 19.2 65 -12.6 9.3
08:40 1015 29.97 844 24.92 -7.1 19.3 64 -12.8 9
08:45 1015 29.97 844 24.92 -6.7 20 64 -12.3 9.9
08:50 1015 29.97 844 24.92 -6.3 20.7 62 -12.5 9.5
08:55 1014 29.94 844 24.92 -6.2 20.8 63 -12.2 10.1
09:00 1014 29.94 844 24.92 -6.7 19.9 65 -12.3 9.9
09:05 1014 29.94 843 24.89 -7 19.4 65 -12.5 9.6
09:10 1014 29.94 843 24.89 -7.1 19.3 67 -12.3 9.9
09:15 1014 29.94 843 24.89 -7.3 18.9 69 -12 10.5
09:20 1014 29.94 843 24.89 -6.9 19.6 67 -12 10.4
09:25 1014 29.94 843 24.89 -6.6 20.1 66 -12 10.5
09:30 1014 29.94 843 24.89 -6 21.2 65 -11.6 11.1
09:35 1014 29.94 843 24.89 -5.7 21.8 64 -11.4 11.5
09:40 1014 29.94 843 24.89 -5.1 22.8 62 -11.2 11.8
09:45 1014 29.94 843 24.89 -4.6 23.7 59 -11.6 11.2
09:50 1014 29.94 843 24.89 -4 24.9 55 -11.6 11
09:55 1014 29.94 843 24.89 -3.3 26 52 -11.7 10.9
10:00 1014 29.94 843 24.89 -2.9 26.7 53 -11.3 11.7
10:05 1014 29.94 843 24.89 -3.1 26.4 52 -11.5 11.3
10:10 1014 29.94 843 24.89 -2.5 27.5 53 -10.9 12.3
10:15 1014 29.94 843 24.89 -2.7 27.1 56 -10.4 13.3
10:20 1014 29.94 843 24.89 -3.2 26.2 56 -10.9 12.4
10:25 1014 29.94 843 24.89 -2.7 27.2 54 -10.8 12.5
10:30 1014 29.94 843 24.89 -2.4 27.7 52 -10.9 12.4
10:35 1014 29.94 843 24.89 -2.4 27.6 52 -11.1 12
10:40 1014 29.94 843 24.89 -2.1 28.2 49 -11.3 11.6
10:45 1014 29.94 843 24.89 -1.5 29.3 48 -11.3 11.7
10:50 1014 29.94 843 24.89 -2.3 27.8 51 -11.1 11.9
10:55 1014 29.94 843 24.89 -2.8 26.9 51 -11.6 11.2
11:00 1014 29.94 843 24.89 -3.8 25.2 55 -11.5 11.3
11:05 1014 29.94 843 24.89 -4.1 24.6 56 -11.7 10.9
11:10 1014 29.94 843 24.89 -3.9 25 54 -11.8 10.7
11:15 1014 29.94 843 24.89 -3.9 25 55 -11.6 11.2
11:20 1013 29.91 843 24.89 -3.5 25.6 53 -11.7 11
11:25 1013 29.91 843 24.89 -3.5 25.7 53 -11.7 10.9
11:30 1013 29.91 843 24.89 -3.3 26 51 -12 10.5
11:35 1013 29.91 843 24.89 -3.1 26.5 53 -11.4 11.5
11:40 1013 29.91 843 24.89 -3.1 26.4 52 -11.6 11.1
11:45 1013 29.91 842 24.86 -2.8 26.9 51 -11.7 11
11:50 1013 29.91 842 24.86 -2.8 27 50 -11.9 10.6
11:55 1013 29.91 842 24.86 -2.2 28.1 49 -11.5 11.2
12:00 1013 29.91 842 24.86 -2.4 27.8 49 -11.7 10.9
12:05 1013 29.91 842 24.86 -1.9 28.6 48 -11.6 11.1
12:10 1013 29.91 842 24.86 -1.5 29.2 46 -11.6 11.1
12:15 1013 29.91 842 24.86 -1 30.2 45 -11.5 11.3
12:20 1013 29.91 842 24.86 -0.7 30.8 42 -12 10.4
12:25 1013 29.91 842 24.86 -1.1 30 46 -11.3 11.7
12:30 1013 29.91 842 24.86 -0.7 30.7 45 -11.2 11.9
12:35 1013 29.91 842 24.86 0.1 32.1 40 -11.9 10.6
12:40 1013 29.91 842 24.86 0 32.1 42 -11.4 11.6
12:45 1013 29.91 842 24.86 -0.4 31.3 43 -11.5 11.3
12:50 1013 29.91 842 24.86 -0.4 31.3 43 -11.4 11.5
12:55 1013 29.91 842 24.86 -0.9 30.4 46 -11.2 11.8
13:00 1013 29.91 842 24.86 -0.8 30.5 45 -11.4 11.5
13:05 1012 29.88 842 24.86 -0.4 31.2 46 -10.7 12.7
13:10 1012 29.88 842 24.86 -0.5 31 44 -11.3 11.6
13:15 1012 29.88 842 24.86 -0.4 31.2 44 -11.2 11.9
13:20 1012 29.88 842 24.86 -0.4 31.3 47 -10.3 13.5
13:25 1012 29.88 841 24.83 -0.7 30.8 49 -10.2 13.7
13:30 1012 29.88 841 24.83 -1.1 30 52 -9.7 14.5
13:35 1012 29.88 841 24.83 -1.1 30.1 50 -10.2 13.7
13:40 1012 29.88 841 24.83 -0.6 30.9 48 -10.3 13.5
13:45 1012 29.88 841 24.83 -0.4 31.3 47 -10.3 13.4
13:50 1012 29.88 841 24.83 -0 31.9 46 -10.3 13.5
13:55 1012 29.88 841 24.83 0.1 32.3 46 -10.2 13.6
14:00 1012 29.88 841 24.83 0.1 32.3 45 -10.4 13.3
14:05 1012 29.88 841 24.83 -0.1 31.8 48 -10 14.1
14:10 1012 29.88 841 24.83 -0.6 30.9 51 -9.6 14.8
14:15 1012 29.88 841 24.83 -1.4 29.5 51 -10.4 13.3
14:20 1012 29.88 841 24.83 -1.8 28.7 52 -10.6 13
14:25 1012 29.88 841 24.83 -1.7 29 52 -10.3 13.4
14:30 1012 29.88 841 24.83 -1.7 28.9 52 -10.4 13.3
14:35 1012 29.88 841 24.83 -1.6 29.2 50 -10.6 12.9
14:40 1012 29.88 841 24.83 -1.4 29.4 51 -10.3 13.5
14:45 1012 29.88 841 24.83 -1.1 30 50 -10.4 13.3
14:50 1012 29.88 841 24.83 -0.8 30.6 49 -10.2 13.6
14:55 1012 29.88 841 24.83 -0.8 30.6 50 -10 14.1
15:00 1012 29.88 841 24.83 -1.3 29.7 50 -10.3 13.4
15:05 1012 29.88 841 24.83 -1.5 29.3 52 -10.2 13.7
15:10 1012 29.88 841 24.83 -0.9 30.3 49 -10.2 13.6
15:15 1012 29.88 841 24.83 -0.5 31 48 -10.3 13.5
15:20 1012 29.88 841 24.83 -0.4 31.3 48 -10.2 13.7
15:25 1012 29.88 841 24.83 -0.2 31.6 45 -10.8 12.5
15:30 1012 29.88 841 24.83 -0.3 31.4 47 -10.3 13.4
15:35 1012 29.88 841 24.83 -0.2 31.7 47 -10.3 13.5
15:40 1012 29.88 841 24.83 -0.5 31.2 47 -10.6 13
15:45 1012 29.88 841 24.83 -0.4 31.3 46 -10.7 12.8
15:50 1011 29.85 841 24.83 -0 32 46 -10.4 13.3
15:55 1011 29.85 841 24.83 0.4 32.7 46 -9.8 14.3
16:00 1011 29.85 841 24.83 0.6 33.1 46 -9.8 14.4
16:05 1012 29.88 841 24.83 0.7 33.2 45 -10 13.9
16:10 1012 29.88 841 24.83 0 32.1 48 -9.7 14.6
16:15 1012 29.88 841 24.83 -0.1 31.9 49 -9.6 14.7
16:20 1012 29.88 841 24.83 -0.2 31.6 51 -9.3 15.3
16:25 1012 29.88 841 24.83 -0.4 31.3 52 -9 15.8
16:30 1012 29.88 841 24.83 -0.2 31.7 53 -8.7 16.3
16:35 1012 29.88 841 24.83 0.1 32.2 51 -8.8 16.2
16:40 1012 29.88 841 24.83 0.2 32.4 53 -8.2 17.2
16:45 1012 29.88 841 24.83 0.3 32.6 53 -8.1 17.4
16:50 1012 29.88 841 24.83 0.5 33 49 -9 15.9
16:55 1012 29.88 841 24.83 0.4 32.7 55 -7.7 18.2
17:00 1012 29.88 842 24.86 0 32.1 52 -8.7 16.4
17:05 1012 29.88 842 24.86 0.1 32.2 53 -8.5 16.8
17:10 1012 29.88 842 24.86 0.2 32.3 59 -6.9 19.5
17:15 1012 29.88 842 24.86 -0.5 31.2 67 -5.9 21.3
17:20 1013 29.91 842 24.86 -0.9 30.3 75 -4.9 23.2
17:25 1013 29.91 842 24.86 -1.2 29.8 78 -4.5 23.9
17:30 1013 29.91 842 24.86 -1.5 29.3 80 -4.5 23.9
17:35 1013 29.91 842 24.86 -1.7 28.9 82 -4.3 24.2
17:40 1013 29.91 842 24.86 -2 28.3 85 -4.3 24.2
17:45 1013 29.91 842 24.86 -2.1 28.2 86 -4.1 24.7
17:50 1013 29.91 842 24.86 -2.3 27.9 87 -4.2 24.5
17:55 1013 29.91 842 24.86 -2.3 27.9 87 -4.1 24.5
18:00 1013 29.91 842 24.86 -2.4 27.7 89 -3.9 24.9
18:05 1013 29.91 842 24.86 -2.4 27.7 89 -3.9 24.9
18:10 1012 29.88 842 24.86 -2.3 27.8 88 -4 24.8
18:15 1012 29.88 842 24.86 -2.4 27.6 88 -4.1 24.6
18:20 1013 29.91 842 24.86 -2.6 27.3 88 -4.3 24.3
18:25 1013 29.91 842 24.86 -2.6 27.4 87 -4.4 24.1
18:30 1013 29.91 842 24.86 -2.5 27.5 87 -4.4 24.1
18:35 1013 29.91 842 24.86 -2.5 27.6 86 -4.5 23.8
18:40 1013 29.91 842 24.86 -2.4 27.7 86 -4.4 24.1
18:45 1013 29.91 842 24.86 -2.5 27.6 87 -4.3 24.2
18:50 1013 29.91 842 24.86 -2.5 27.5 88 -4.2 24.5
18:55 1013 29.91 842 24.86 -2.5 27.5 88 -4.2 24.4
19:00 1013 29.91 842 24.86 -2.5 27.5 88 -4.2 24.5
19:05 1013 29.91 842 24.86 -2.5 27.4 89 -4.1 24.6
19:10 1013 29.91 842 24.86 -2.4 27.6 89 -4.1 24.7
19:15 1013 29.91 842 24.86 -2.4 27.7 87 -4.2 24.4
19:20 1013 29.91 842 24.86 -2.1 28.2 79 -5.3 22.5
19:25 1013 29.91 842 24.86 -1.6 29.1 73 -5.8 21.5
19:30 1013 29.91 842 24.86 -1.3 29.7 70 -6 21.2
19:35 1013 29.91 842 24.86 -1.2 29.9 70 -6 21.2
19:40 1013 29.91 842 24.86 -1.1 29.9 77 -4.6 23.7
19:45 1013 29.91 842 24.86 -1.4 29.5 78 -4.8 23.3
19:50 1013 29.91 842 24.86 -1.5 29.3 77 -5 23
19:55 1013 29.91 843 24.89 -1.5 29.3 75 -5.4 22.3
20:00 1013 29.91 843 24.89 -1.5 29.4 73 -5.7 21.8
20:05 1013 29.91 843 24.89 -1.5 29.3 74 -5.5 22.1
20:10 1013 29.91 842 24.86 -1.6 29.2 71 -6.1 21.1
20:15 1013 29.91 842 24.86 -1.5 29.3 71 -6.2 20.9
20:20 1013 29.91 842 24.86 -1.4 29.4 72 -5.8 21.5
20:25 1013 29.91 842 24.86 -1.6 29.2 74 -5.7 21.8
20:30 1013 29.91 842 24.86 -1.8 28.8 76 -5.4 22.2
20:35 1013 29.91 842 24.86 -1.8 28.8 75 -5.6 22
20:40 1013 29.91 842 24.86 -1.8 28.8 76 -5.5 22.1
20:45 1013 29.91 842 24.86 -1.8 28.7 76 -5.6 21.9
20:50 1013 29.91 843 24.89 -1.8 28.8 75 -5.6 21.9
20:55 1014 29.94 843 24.89 -1.8 28.7 79 -5 23
21:00 1014 29.94 843 24.89 -2.1 28.2 77 -5.6 21.9
21:05 1014 29.94 843 24.89 -2 28.4 75 -5.9 21.4
21:10 1014 29.94 843 24.89 -1.8 28.8 74 -5.8 21.5
21:15 1014 29.94 843 24.89 -1.7 28.9 74 -5.9 21.5
21:20 1014 29.94 843 24.89 -1.7 29 71 -6.2 20.8
21:25 1014 29.94 843 24.89 -1.4 29.4 66 -6.9 19.5
21:30 1014 29.94 843 24.89 -1.1 30 71 -5.7 21.8
21:35 1014 29.94 843 24.89 -1.2 29.8 73 -5.5 22.2
21:40 1014 29.94 843 24.89 -1.4 29.6 75 -5.2 22.7
21:45 1014 29.94 843 24.89 -1.7 28.9 76 -5.3 22.4
21:50 1014 29.94 843 24.89 -2 28.3 80 -5.1 22.9
21:55 1014 29.94 843 24.89 -2.3 27.8 84 -4.7 23.6
22:00 1014 29.94 843 24.89 -2.6 27.4 86 -4.5 23.8
22:05 1014 29.94 843 24.89 -2.6 27.3 87 -4.6 23.8
22:10 1014 29.94 843 24.89 -2.8 27 86 -4.7 23.5
22:15 1014 29.94 843 24.89 -2.8 27 86 -4.8 23.3
22:20 1014 29.94 843 24.89 -2.8 26.9 86 -4.8 23.3
22:25 1014 29.94 843 24.89 -2.8 26.9 85 -5.1 22.9
22:30 1014 29.94 843 24.89 -2.8 26.9 86 -4.9 23.1
22:35 1014 29.94 843 24.89 -3 26.6 86 -5.1 22.9
22:40 1014 29.94 843 24.89 -3.1 26.4 86 -5.1 22.9
22:45 1014 29.94 843 24.89 -3.1 26.4 87 -5 22.9
22:50 1014 29.94 843 24.89 -3.2 26.2 87 -5.1 22.8
22:55 1014 29.94 843 24.89 -3.3 26.1 86 -5.3 22.5
23:00 1014 29.94 843 24.89 -3.2 26.2 84 -5.5 22
23:05 1014 29.94 843 24.89 -3 26.5 84 -5.4 22.2
23:10 1014 29.94 843 24.89 -3 26.6 83 -5.5 22
23:15 1014 29.94 843 24.89 -3 26.5 83 -5.6 22
23:20 1014 29.94 843 24.89 -3.1 26.5 83 -5.6 21.9
23:25 1014 29.94 843 24.89 -3 26.5 81 -5.8 21.6
23:30 1014 29.94 843 24.89 -3 26.7 81 -5.7 21.7
23:35 1014 29.94 843 24.89 -3 26.6 83 -5.4 22.3
23:40 1014 29.94 843 24.89 -3 26.6 84 -5.4 22.3
23:45 1014 29.94 844 24.92 -3.1 26.5 83 -5.5 22.1
23:50 1014 29.94 844 24.92 -3.1 26.5 83 -5.5 22.1
23:55 1014 29.94 844 24.92 -3.2 26.3 84 -5.6 22
24:00 1014 29.94 844 24.92 -3.2 26.2 83 -5.7 21.8